Hidden Valley, Valles Caldera, New Mexico Weather observations

Data are for 10 minute period ending at time listed.
 Day   Time   Solar   Ave.   Ave.  Ave.  Vector  Max.   Baro.   Total    
  of    of     Rad.   Air    Rel.  Wind   Wind   Wind  Press.  Precip.   
Year   Day            Temp.  Hum.  Speed  Dir.   Gust                    
2014   (MST)  Kw/m2    F      %     mph   deg.    mph    mb.     in.     
-------------------------------------------------------------------------
 328   21:30   0.02   16.9    55    2.5   360     4.1   748.5    0.00 
 328   21:40   0.05   11.7    67    1.5    23     2.2   748.6    0.00 
 328   21:50   0.45   10.1    73    1.9    32     2.6   748.7    0.00 
 328   22:00   0.74   10.3    72    1.9    25     2.8   748.9    0.00 
 328   22:10   0.15   10.3    69    1.6    67     2.2   749.0    0.00 
 328   22:20   0.00    9.1    70    0.8    20     2.5   749.2    0.00 
 328   22:30   0.00    9.9    69    0.4   278     1.0   749.4    0.00 
 328   22:40   0.00    8.3    73    0.3   321     1.1   749.5    0.00 
 328   22:50   0.00    5.8    76    0.9   295     1.3   749.5    0.00 
 328   23:00   0.00    4.7    80    0.4   166     1.2   749.4    0.00 
 328   23:10   0.00    3.9    80    0.2   163     0.9   749.4    0.00 
 328   23:20   1.21    4.2    84    0.8   195     1.9   749.5    0.00 
 328   23:30   2.52    4.5    78    0.3   268     1.0   749.5    0.00 
 328   23:40   3.03    1.7    83    0.3   300     0.8   749.6    0.00 
 328   23:50   3.32    2.9    85    0.7   296     2.1   749.6    0.00 
 329    0:00   3.24    1.9    82    0.6    28     1.8   749.6    0.00 
 329    0:10   2.86   -1.4    82    0.9     0     1.7   749.6    0.00 
 329    0:20   2.68   -1.6    84    0.0   263     0.4   749.7    0.00 
 329    0:30   3.36   -2.2    84    0.1   236     0.6   749.7    0.00 
 329    0:40   1.95   -2.9    86    0.0     0     0.0   749.7    0.00 
 329    0:50   3.65   -2.8    87    0.0     0     0.0   749.8    0.00 
 329    1:00   3.06   -2.7    88    0.6   162     1.1   749.9    0.00 
 329    1:10   0.02   -2.9    86    0.3    45     1.3   750.1    0.00 
 329    1:20   0.00   -5.1    83    0.6    27     0.9   750.3    0.00 
 329    1:30   0.00   -5.9    84    0.5    22     1.2   750.4    0.00 
 329    1:40   0.00   -5.4    87    0.4   218     1.2   750.4    0.00 
 329    1:50   0.00   -5.4    86    0.2   152     0.8   750.4    0.00 
 329    2:00   0.00   -6.0    85    0.0   270     0.8   750.2    0.00 
 329    2:10   0.00   -5.9    86    0.5   341     1.1   750.3    0.00 
 329    2:20   0.08   -6.0    85    0.3    89     0.8   750.4    0.00 
 329    2:30   0.22   -6.3    85    0.4   329     0.9   750.4    0.00 
 329    2:40   0.00   -6.6    84    0.3    55     0.8   750.3    0.00 
 329    2:50   0.00   -6.6    85    0.1    97     0.5   750.1    0.00 
 329    3:00   0.00   -6.7    84    0.0     0     0.0   750.1    0.00 
 329    3:10   0.00   -6.7    85    0.0     0     0.0   750.0    0.00 
 329    3:20   0.00   -7.7    82    0.0    85     0.5   750.1    0.00 
 329    3:30   0.00   -8.9    82    0.7     3     1.0   750.1    0.00 
 329    3:40   0.02   -8.1    86    0.3   171     1.0   750.1    0.00 
 329    3:50   0.03   -7.1    86    0.0    63     0.3   750.2    0.00 
 329    4:00   0.03   -6.9    85    0.1   302     0.8   750.1    0.00 
 329    4:10   0.03   -6.3    85    0.3   335     0.9   750.3    0.00 
 329    4:20   0.03   -5.8    85    0.4   160     0.8   750.2    0.00 
 329    4:30   0.01   -5.5    85    0.5   322     1.0   750.2    0.00 
 329    4:40   0.01   -5.3    84    0.1   276     0.6   750.2    0.00 
 329    4:50   0.05   -4.5    86    0.4   343     1.1   750.2    0.00 
 329    5:00   0.95   -4.0    86    0.5   199     0.9   750.0    0.00 
 329    5:10   1.20   -3.7    84    0.8    52     1.7   750.0    0.00 
 329    5:20   1.21   -4.0    84    0.5    46     1.3   750.2    0.00 
 329    5:30   1.59   -3.5    85    0.7   336     1.9   750.2    0.00 
 329    5:40   2.36   -3.6    84    0.8   153     2.0   750.3    0.00 
 329    5:50   2.16   -2.6    86    0.7   169     1.7   749.9    0.00 
 329    6:00   1.32   -2.9    84    0.9    45     2.6   749.8    0.00 
 329    6:10   2.07   -3.0    84    0.5    36     1.2   750.1    0.00 
 329    6:20   2.84   -3.1    84    0.7   149     1.8   750.0    0.00 
 329    6:30   2.73   -2.2    86    0.9   206     1.9   750.0    0.00 
 329    6:40   2.12   -1.3    85    0.9   167     2.5   750.0    0.00 
 329    6:50   1.43   -1.6    84    0.8   313     2.2   750.0    0.00 
 329    7:00   1.26   -1.7    84    0.8   133     2.1   750.0    0.00 
 329    7:10   1.67   -1.8    84    0.4   158     1.7   749.9    0.00 
 329    7:20   1.16   -1.4    86    0.9   193     2.3   749.8    0.00 
 329    7:30   1.30    0.9    85    1.3   198     2.8   750.0    0.00 
 329    7:40   2.35    2.4    85    1.1   172     2.2   749.9    0.00 
 329    7:50   1.89    3.8    83    0.6   162     1.3   750.0    0.00 
 329    8:00   2.28    7.1    84    0.7   198     1.7   750.0    0.00 
 329    8:10   0.79   10.7    78    1.5   184     2.4   750.0    0.00 
 329    8:20   0.23   12.1    77    2.2   184     3.5   750.0    0.00 
 329    8:30   0.26   19.0    54    3.6   338     7.7   750.1    0.00 
 329    8:40   0.29   23.7    38    5.7   353    11.7   750.0    0.00 
 329    8:50   0.33   24.4    32    7.2   345    13.4   750.1    0.00 
 329    9:00   0.35   25.1    30    7.0   348    11.4   750.0    0.00 
 329    9:10   0.38   26.3    28    4.9   348     9.2   750.0    0.00 
 329    9:20   0.40   27.8    26    3.0     1     6.6   749.9    0.00 
 329    9:30   0.43   28.6    24    2.1   354     4.3   749.8    0.00 
 329    9:40   0.45   29.2    25    1.8    31     4.0   749.9    0.00 
 329    9:50   0.47   29.1    26    2.4   274     6.5   749.7    0.00 
 329   10:00   0.49   29.7    28    2.1   237     7.1   749.5    0.00 
 329   10:10   0.51   31.0    28    1.6   231     5.0   749.6    0.00 
 329   10:20   0.53   30.2    28    2.6   274     7.6   749.5    0.00 
 329   10:30   0.54   31.2    27    3.0   348     8.9   749.2    0.00 
 329   10:40   0.56   32.3    26    2.7   323     6.7   749.1    0.00 
 329   10:50   0.57   32.4    26    2.4   270     5.6   749.0    0.00 
 329   11:00   0.58   33.4    26    3.9   352     9.5   748.9    0.00 
 329   11:10   0.59   33.4    25    2.4   323     8.1   748.8    0.00 
 329   11:20   0.60   34.2    26    2.6   342     7.1   748.6    0.00 
 329   11:30   0.60   34.8    26    2.7   336     5.9   748.5    0.00 
 329   11:40   0.61   34.7    26    2.7   262     8.5   748.3    0.00 
 329   11:50   0.61   34.7    26    2.3   322     5.8   748.3    0.00 
 329   12:00   0.61   34.5    26    2.2   316     6.5   748.0    0.00 
 329   12:10   0.61   35.6    26    2.6   329    11.3   747.9    0.00 
 329   12:20   0.61   36.3    25    3.4   338    10.4   747.8    0.00 
 329   12:30   0.60   35.8    25    5.4   342     9.8   747.6    0.00 
 329   12:40   0.60   35.9    25    5.5   330     9.9   747.4    0.00 
 329   12:50   0.59   37.1    26    4.5   333     9.3   747.5    0.00 
 329   13:00   0.58   37.5    25    4.0   317     8.9   747.7    0.00 
 329   13:10   0.56   37.6    26    4.9   310    11.2   747.7    0.00 
 329   13:20   0.55   37.2    27    5.2   322    11.3   747.7    0.00 
 329   13:30   0.54   37.6    27    5.1   326    11.5   747.8    0.00 
 329   13:40   0.52   37.7    26    4.2   325     8.0   747.8    0.00 
 329   13:50   0.50   37.8    26    3.1   285     6.8   747.8    0.00 
 329   14:00   0.48   37.2    26    3.5   257     8.7   747.7    0.00 
 329   14:10   0.46   36.8    26    3.4   263     6.5   747.7    0.00 
 329   14:20   0.44   37.2    26    2.5   267     6.1   747.7    0.00 
 329   14:30   0.42   37.4    26    2.8   260     5.5   747.8    0.00 
 329   14:40   0.41   37.3    26    2.3   278     5.0   747.8    0.00 
 329   14:50   0.38   37.1    26    2.6   273     6.2   747.8    0.00 
 329   15:00   0.35   37.0    26    2.5   276     5.5   747.8    0.00 
 329   15:10   0.31   37.3    25    2.4   321     7.1   747.7    0.00 
 329   15:20   0.28   36.7    27    4.4   339     7.6   747.6    0.00 
 329   15:30   0.25   36.2    28    4.9   330     8.6   747.7    0.00 
 329   15:40   0.22   35.9    29    5.3   343    11.3   747.6    0.00 
 329   15:50   0.20   35.8    29    3.2   338     6.3   747.7    0.00 
 329   16:00   0.17   35.5    28    3.2   336     5.6   747.7    0.00 
 329   16:10   0.14   35.2    30    3.0   336     5.9   747.8    0.00 
 329   16:20   0.07   34.5    33    3.8   349     8.0   747.7    0.00 
 329   16:30   0.02   33.7    35    4.6   344     8.2   747.7    0.00 
 329   16:40   0.01   33.4    37    3.9     6     8.5   747.5    0.00 
 329   16:50   0.01   33.3    38    4.2     6     7.7   747.3    0.00 
 329   17:00   0.01   33.4    39    3.0   325     7.4   747.2    0.00 
 329   17:10   0.00   33.3    41    2.1   335     5.9   747.2    0.00 
 329   17:20   0.00   32.9    42    1.7    33     5.7   747.3    0.00 
 329   17:30   0.00   32.6    45    2.4     7     8.6   747.3    0.00 
 329   17:40   0.00   32.3    47    1.5   280     5.1   747.3    0.00 
 329   17:50   0.00   32.6    46    2.3    76     6.8   747.1    0.00 
 329   18:00   0.00   32.7    46    2.0    34     5.9   747.0    0.00 
 329   18:10   0.00   33.2    46    3.5     1     7.5   747.1    0.00 
 329   18:20   0.00   33.4    45    5.3     1     9.8   747.3    0.00 
 329   18:30   0.00   32.6    45    6.1     1    10.2   747.5    0.00 
 329   18:40   0.00   31.4    46    7.8     1    11.6   747.4    0.00 
 329   18:50   0.00   31.6    46    8.3     0    13.1   747.3    0.00 
 329   19:00   0.00   32.3    47    8.9   359    12.4   747.3    0.00 
 329   19:10   0.00   32.3    48    7.1     0    11.5   747.6    0.00 
 329   19:20   0.00   30.8    51    5.5    16     9.1   747.8    0.00 
 329   19:30   0.00   30.5    52    4.9     9     8.6   748.0    0.00 
 329   19:40   0.00   30.4    53    5.4     5     8.8   748.1    0.00 
 329   19:50   0.00   30.7    53    5.6    10     8.8   748.1    0.00 
 329   20:00   0.00   30.5    54    4.7     8     7.1   748.1    0.00 
 329   20:10   0.00   30.7    54    5.0    16     8.1   748.1    0.00 
 329   20:20   0.00   30.7    53    3.2     9     6.3   748.2    0.00 
 329   20:30   0.00   29.8    56    1.6     7     2.8   748.4    0.00 
 329   20:40   0.00   27.2    60    1.4   178     2.3   748.5    0.00 
 329   20:50   0.00   25.4    64    1.7   190     2.3   748.6    0.00 
 329   21:00   0.00   25.3    66    1.6   198     3.0   748.6    0.00 
 329   21:10   0.00   26.1    64    1.9   182     3.1   748.7    0.00 
 329   21:20   0.00   26.0    64    2.1   192     2.9   748.9    0.00 

Return to Hidden Valley, Valles Caldera graphs page.


Western Regional Climate Center,wrcc@dri.edu